Terminal Aerodrome Forecast
Issued by NWS

Home | Current Version | Previous Version | Text Only | Print | Product List | Glossary Off
Versions: 1 2 3 4 5 6 7 8 9 10 11 12 13 14 15 16 17 18 19 20 21 22 23 24

000
FTUS41 KCLE 222300
TAFFDY
TAF
KFDY 222337Z 2300/2324 08008KT 6SM HZ BKN045 OVC080
     FM230500 10007KT 5SM BR VCSH SCT015 OVC025
     FM230800 12008KT 2SM -SHRA BKN008 OVC012
     FM231200 17008KT 3SM -DZ BR SCT003 OVC008
     FM231500 20012KT P6SM SCT008 OVC012=

USA.gov is the U.S. government's official web portal to all federal, state and local government web resources and services.